Time;durP1;ratioP1;P1;durP2;ratioP2;P2;SDS_P1;SDS_P2;PMS_P1;PMS_P2;Temp;Humidity;BMP_temperature;BMP_pressure;BME280_temperature;BME280_humidity;BME280_pressure;Samples;Min_cycle;Max_cycle;Signal;HPM_P1;HPM_P2
2022/06/23 00:00:55;;;;;;;;;;;22.20;54.30;;;;;;21047325;28;20366;-71
2022/06/23 00:10:56;;;;;;;;;;;22.20;54.30;;;;;;21039317;28;19971;-71
2022/06/23 00:20:58;;;;;;;;;;;22.20;54.40;;;;;;21028676;28;19920;-72
2022/06/23 00:31:00;;;;;;;;;;;22.10;54.40;;;;;;21044170;28;19912;-71
2022/06/23 00:41:00;;;;;;;;;;;22.20;54.50;;;;;;21041752;28;19920;-72
2022/06/23 00:51:15;;;;;;;;;;;22.10;54.60;;;;;;21035102;28;19920;-71
2022/06/23 01:01:29;;;;;;;;;;;22.10;54.70;;;;;;21041819;28;20266;-72
2022/06/23 01:11:38;;;;;;;;;;;22.10;54.70;;;;;;21024418;28;19919;-72
2022/06/23 01:21:40;;;;;;;;;;;22.10;54.80;;;;;;21038937;28;19920;-71
2022/06/23 01:31:47;;;;;;;;;;;22.10;54.80;;;;;;21032777;28;19912;-72
2022/06/23 01:41:49;;;;;;;;;;;22.10;54.90;;;;;;21038144;28;20010;-71
2022/06/23 01:51:50;;;;;;;;;;;22.10;54.90;;;;;;21037854;28;20493;-71
2022/06/23 02:01:54;;;;;;;;;;;22.00;54.90;;;;;;21036831;28;19920;-71
2022/06/23 02:11:55;;;;;;;;;;;22.00;54.90;;;;;;21040082;28;19923;-71
2022/06/23 02:22:15;;;;;;;;;;;22.00;55.00;;;;;;21026654;28;19924;-71
2022/06/23 02:32:17;;;;;;;;;;;22.00;55.00;;;;;;21032583;28;19916;-74
2022/06/23 02:42:32;;;;;;;;;;;22.00;55.10;;;;;;21018113;28;20416;-72
2022/06/23 02:52:36;;;;;;;;;;;21.90;55.70;;;;;;21039897;28;19916;-72
2022/06/23 03:02:42;;;;;;;;;;;22.00;55.20;;;;;;21027397;28;19975;-72
2022/06/23 03:12:43;;;;;;;;;;;21.90;55.10;;;;;;21034094;28;19916;-72
2022/06/23 03:23:01;;;;;;;;;;;21.90;55.20;;;;;;21067141;28;19931;-71
2022/06/23 03:33:07;;;;;;;;;;;21.90;55.20;;;;;;21022763;28;19912;-72
2022/06/23 03:43:11;;;;;;;;;;;21.90;55.20;;;;;;21033370;28;20298;-73
2022/06/23 03:53:13;;;;;;;;;;;21.90;55.30;;;;;;21082431;28;20458;-76
2022/06/23 04:03:29;;;;;;;;;;;21.90;55.30;;;;;;21064210;28;20305;-73
2022/06/23 04:13:30;;;;;;;;;;;21.90;55.30;;;;;;21058193;28;20271;-73
2022/06/23 04:23:32;;;;;;;;;;;21.80;55.20;;;;;;21037447;28;19977;-77
2022/06/23 04:33:38;;;;;;;;;;;21.80;55.30;;;;;;21027717;28;20352;-75
2022/06/23 04:43:40;;;;;;;;;;;21.80;55.30;;;;;;21040076;28;19951;-76
2022/06/23 04:53:42;;;;;;;;;;;21.90;55.30;;;;;;21042249;28;20010;-73
2022/06/23 05:03:44;;;;;;;;;;;21.80;55.30;;;;;;21059148;28;19924;-73
2022/06/23 05:13:48;;;;;;;;;;;21.80;55.30;;;;;;21023997;28;19931;-73
2022/06/23 05:24:05;;;;;;;;;;;21.80;55.30;;;;;;21040928;28;20355;-75
2022/06/23 05:34:10;;;;;;;;;;;21.90;55.40;;;;;;21021207;28;19966;-77
2022/06/23 05:44:16;;;;;;;;;;;21.90;55.40;;;;;;21014803;28;20298;-75
2022/06/23 05:54:25;;;;;;;;;;;21.90;55.40;;;;;;21035139;28;19961;-74
2022/06/23 06:04:26;;;;;;;;;;;22.00;55.40;;;;;;21055607;28;19930;-75
2022/06/23 06:14:29;;;;;;;;;;;22.00;55.40;;;;;;21037881;28;19926;-74
2022/06/23 06:24:31;;;;;;;;;;;22.10;55.40;;;;;;21054995;28;20263;-74
2022/06/23 06:34:33;;;;;;;;;;;22.00;55.30;;;;;;21037645;28;19923;-74
2022/06/23 06:44:33;;;;;;;;;;;22.10;55.40;;;;;;21037006;28;19920;-74
2022/06/23 06:54:38;;;;;;;;;;;22.10;55.40;;;;;;21030011;28;20281;-74
2022/06/23 07:04:43;;;;;;;;;;;22.20;55.40;;;;;;21041314;28;20386;-77
2022/06/23 07:15:05;;;;;;;;;;;22.20;55.40;;;;;;21035052;28;19912;-74
2022/06/23 07:25:10;;;;;;;;;;;22.20;55.40;;;;;;21050682;28;19924;-74
2022/06/23 07:35:17;;;;;;;;;;;22.20;55.30;;;;;;21388679;22;19930;-72
2022/06/23 07:45:25;;;;;;;;;;;22.20;55.30;;;;;;20897074;28;19925;-71
2022/06/23 07:55:31;;;;;;;;;;;22.20;55.40;;;;;;20866072;28;19913;-70
2022/06/23 08:05:33;;;;;;;;;;;22.30;55.30;;;;;;20882239;28;19971;-70
2022/06/23 08:25:59;;;;;;;;;;;22.30;55.30;;;;;;20898109;28;19924;-71
2022/06/23 08:36:03;;;;;;;;;;;22.40;55.40;;;;;;20879134;28;19916;-70
2022/06/23 08:46:05;;;;;;;;;;;22.40;55.40;;;;;;20895258;28;20370;-71
2022/06/23 08:56:07;;;;;;;;;;;22.40;55.40;;;;;;20895541;28;20023;-72
2022/06/23 09:06:17;;;;;;;;;;;22.50;55.40;;;;;;20893675;28;20135;-71
2022/06/23 09:16:20;;;;;;;;;;;22.40;55.30;;;;;;20892242;28;19925;-70
2022/06/23 09:26:24;;;;;;;;;;;22.40;55.40;;;;;;20910105;28;19916;-71
2022/06/23 09:36:44;;;;;;;;;;;22.40;55.30;;;;;;20875471;28;20016;-71
2022/06/23 09:46:49;;;;;;;;;;;22.40;55.30;;;;;;20890294;28;19984;-70
2022/06/23 09:57:08;;;;;;;;;;;22.50;55.40;;;;;;20890354;28;19927;-70
2022/06/23 10:07:12;;;;;;;;;;;22.40;55.40;;;;;;20906908;28;19919;-72
2022/06/23 10:17:26;;;;;;;;;;;22.40;55.30;;;;;;20871993;28;19925;-67
2022/06/23 10:27:45;;;;;;;;;;;22.40;55.30;;;;;;20871665;28;19912;-68
2022/06/23 10:37:49;;;;;;;;;;;22.50;55.40;;;;;;20870862;28;20009;-68
2022/06/23 10:47:56;;;;;;;;;;;22.50;55.30;;;;;;20903116;28;19956;-68
2022/06/23 10:58:11;;;;;;;;;;;22.40;55.30;;;;;;20880230;28;20015;-68
2022/06/23 11:08:30;;;;;;;;;;;22.50;55.30;;;;;;20903277;28;19920;-68
2022/06/23 11:18:41;;;;;;;;;;;22.50;55.20;;;;;;20918750;28;19932;-67
2022/06/23 11:28:53;;;;;;;;;;;22.50;55.20;;;;;;20885411;28;19913;-68
2022/06/23 11:39:03;;;;;;;;;;;22.50;55.10;;;;;;20888569;28;19943;-71
2022/06/23 11:49:19;;;;;;;;;;;22.50;55.10;;;;;;20918529;28;19917;-70
2022/06/23 11:59:23;;;;;;;;;;;22.60;55.20;;;;;;20899601;28;20377;-70
2022/06/23 12:09:30;;;;;;;;;;;22.60;55.10;;;;;;20880563;28;19917;-73
2022/06/23 12:19:36;;;;;;;;;;;22.70;55.20;;;;;;20903370;28;20035;-71
2022/06/23 12:29:40;;;;;;;;;;;22.60;55.10;;;;;;20898769;28;19919;-69
2022/06/23 12:39:59;;;;;;;;;;;22.70;55.10;;;;;;20895755;28;20007;-68
2022/06/23 12:50:19;;;;;;;;;;;22.70;55.10;;;;;;20895215;28;19963;-69
2022/06/23 13:00:22;;;;;;;;;;;22.80;55.10;;;;;;20910621;28;19943;-67
2022/06/23 13:10:24;;;;;;;;;;;22.80;55.00;;;;;;20886685;28;19913;-69
2022/06/23 13:20:34;;;;;;;;;;;22.80;54.80;;;;;;20874488;28;19956;-70
2022/06/23 13:30:39;;;;;;;;;;;22.90;54.70;;;;;;20910434;28;20425;-71
2022/06/23 13:40:42;;;;;;;;;;;22.90;54.50;;;;;;20874937;28;20278;-71
2022/06/23 13:50:46;;;;;;;;;;;23.00;54.40;;;;;;20890604;28;19925;-73
2022/06/23 14:00:49;;;;;;;;;;;23.10;54.30;;;;;;20890730;28;20374;-69
2022/06/23 14:10:57;;;;;;;;;;;23.20;54.20;;;;;;20888358;28;20384;-74
2022/06/23 14:21:30;;;;;;;;;;;23.30;54.10;;;;;;20876870;28;19928;-73
2022/06/23 14:31:51;;;;;;;;;;;23.40;54.00;;;;;;20851763;28;19924;-74
2022/06/23 14:41:56;;;;;;;;;;;23.50;54.00;;;;;;20869764;28;19927;-74
2022/06/23 14:51:58;;;;;;;;;;;23.60;53.90;;;;;;20886208;28;21896;-76
2022/06/23 15:02:05;;;;;;;;;;;23.70;53.80;;;;;;20887018;28;19947;-71
2022/06/23 15:12:18;;;;;;;;;;;23.80;53.70;;;;;;20886480;28;19923;-77
2022/06/23 15:32:48;;;;;;;;;;;24.10;53.50;;;;;;20882003;28;20003;-77
2022/06/23 15:42:57;;;;;;;;;;;24.10;53.30;;;;;;20856066;28;19966;-77
2022/06/23 15:52:59;;;;;;;;;;;24.20;53.30;;;;;;20899119;28;20011;-77
2022/06/23 16:03:00;;;;;;;;;;;24.20;53.20;;;;;;20878634;28;19921;-71
2022/06/23 16:13:00;;;;;;;;;;;24.30;53.20;;;;;;20897772;28;20401;-77
2022/06/23 16:23:04;;;;;;;;;;;24.40;53.10;;;;;;20880451;28;19971;-79
2022/06/23 16:33:27;;;;;;;;;;;24.40;53.10;;;;;;20875943;28;20023;-78
2022/06/23 16:43:48;;;;;;;;;;;24.50;52.90;;;;;;20888080;28;19927;-79
2022/06/23 16:54:05;;;;;;;;;;;24.60;52.90;;;;;;20881029;28;19952;-77
2022/06/23 17:04:10;;;;;;;;;;;24.60;52.80;;;;;;20890187;28;19920;-78
2022/06/23 17:14:13;;;;;;;;;;;24.70;52.70;;;;;;20890869;28;19917;-79
2022/06/23 17:24:19;;;;;;;;;;;24.70;52.60;;;;;;20907487;28;19916;-77
2022/06/23 17:34:21;;;;;;;;;;;24.70;52.70;;;;;;20890457;28;19974;-76
2022/06/23 17:44:23;;;;;;;;;;;24.70;52.60;;;;;;20867794;28;19952;-77
2022/06/23 17:54:33;;;;;;;;;;;24.70;52.50;;;;;;20855425;28;19920;-71
2022/06/23 18:04:41;;;;;;;;;;;24.70;52.30;;;;;;20886202;28;19917;-72
2022/06/23 18:14:47;;;;;;;;;;;24.70;52.20;;;;;;20869374;28;19971;-69
2022/06/23 18:24:53;;;;;;;;;;;24.70;53.00;;;;;;20884288;28;19962;-71
2022/06/23 18:35:08;;;;;;;;;;;24.70;52.40;;;;;;20872344;28;19928;-73
2022/06/23 18:45:17;;;;;;;;;;;24.50;52.40;;;;;;20858630;28;19921;-74
2022/06/23 18:55:37;;;;;;;;;;;24.40;52.70;;;;;;20882165;28;20019;-70
2022/06/23 19:05:48;;;;;;;;;;;24.40;53.00;;;;;;20880874;28;19982;-71
2022/06/23 19:15:51;;;;;;;;;;;24.30;53.30;;;;;;20872646;28;19921;-71
2022/06/23 19:26:09;;;;;;;;;;;24.30;53.60;;;;;;20883484;28;19917;-73
2022/06/23 19:36:28;;;;;;;;;;;24.20;53.80;;;;;;20898193;28;19986;-70
2022/06/23 19:46:29;;;;;;;;;;;24.20;54.00;;;;;;20907242;28;19931;-74
2022/06/23 19:56:31;;;;;;;;;;;24.10;54.10;;;;;;20893610;28;19916;-75
2022/06/23 20:06:37;;;;;;;;;;;24.10;54.20;;;;;;20885680;28;19920;-75
2022/06/23 20:16:47;;;;;;;;;;;24.00;54.20;;;;;;20898197;28;19982;-71
2022/06/23 20:26:52;;;;;;;;;;;24.00;54.20;;;;;;20878101;28;19921;-72
2022/06/23 20:37:11;;;;;;;;;;;23.90;54.20;;;;;;20896389;28;20059;-72
2022/06/23 20:47:23;;;;;;;;;;;23.80;54.10;;;;;;20913385;28;19923;-71
2022/06/23 20:57:42;;;;;;;;;;;23.70;54.00;;;;;;20878766;28;19967;-72
2022/06/23 21:07:46;;;;;;;;;;;23.70;53.80;;;;;;20910448;28;19990;-73
2022/06/23 21:18:08;;;;;;;;;;;23.70;53.50;;;;;;20867259;28;20376;-71
2022/06/23 21:28:16;;;;;;;;;;;23.70;53.20;;;;;;20892488;28;19936;-71
2022/06/23 21:38:35;;;;;;;;;;;23.70;53.40;;;;;;20890318;28;20410;-71
2022/06/23 21:48:55;;;;;;;;;;;23.70;52.50;;;;;;20890501;28;19917;-73
2022/06/23 21:58:58;;;;;;;;;;;23.60;52.30;;;;;;20890052;28;19916;-71
2022/06/23 22:09:06;;;;;;;;;;;23.60;52.10;;;;;;20908632;28;20390;-71
2022/06/23 22:19:08;;;;;;;;;;;23.60;51.90;;;;;;20872609;28;20420;-71
2022/06/23 22:29:11;;;;;;;;;;;23.70;51.90;;;;;;20888550;28;19921;-71
2022/06/23 22:39:20;;;;;;;;;;;23.60;51.90;;;;;;20871830;28;19960;-71
2022/06/23 22:49:24;;;;;;;;;;;23.50;52.00;;;;;;20881241;28;19917;-71
2022/06/23 22:59:28;;;;;;;;;;;23.50;51.90;;;;;;20853854;28;20019;-71
2022/06/23 23:09:28;;;;;;;;;;;23.50;51.80;;;;;;20887354;28;19920;-73
2022/06/23 23:19:35;;;;;;;;;;;23.50;51.70;;;;;;20886137;28;20310;-72
2022/06/23 23:29:36;;;;;;;;;;;23.40;51.50;;;;;;20870146;28;20290;-71
2022/06/23 23:39:37;;;;;;;;;;;23.40;51.30;;;;;;20885674;28;19924;-71
2022/06/23 23:49:52;;;;;;;;;;;23.30;51.10;;;;;;20868520;28;20011;-72
2022/06/23 23:59:53;;;;;;;;;;;23.20;51.00;;;;;;20858211;28;19931;-72
